createdAt,value
2022-12-17T00:01:27.520Z,100294.72
2022-12-17T00:04:13.652Z,100300.28
2022-12-17T00:06:59.970Z,100284.09
2022-12-17T00:09:50.267Z,100296.41
2022-12-17T00:12:36.421Z,100295.06
2022-12-17T00:15:23.135Z,100294.31
2022-12-17T00:18:11.166Z,100293.50
2022-12-17T00:20:57.001Z,100287.94
2022-12-17T00:23:42.973Z,100291.56
2022-12-17T00:26:28.513Z,100304.31
2022-12-17T00:29:14.524Z,100312.38
2022-12-17T00:32:00.550Z,100318.81
2022-12-17T00:34:48.250Z,100325.97
2022-12-17T00:37:33.901Z,100331.94
2022-12-17T00:40:19.830Z,100337.94
2022-12-17T00:43:05.802Z,100329.22
2022-12-17T00:45:51.944Z,100344.34
2022-12-17T00:48:38.436Z,100344.91
2022-12-17T00:51:26.976Z,100338.31
2022-12-17T00:54:13.018Z,100336.03
2022-12-17T00:56:59.662Z,100340.69
2022-12-17T00:59:45.727Z,100344.91
2022-12-17T01:02:28.031Z,100345.97
2022-12-17T01:05:14.177Z,100352.56
2022-12-17T01:08:01.809Z,100355.22
2022-12-17T01:10:48.207Z,100352.25
2022-12-17T01:13:34.885Z,100357.38
2022-12-17T01:16:22.472Z,100355.75
2022-12-17T01:19:08.706Z,100343.69
2022-12-17T01:21:54.744Z,100337.78
2022-12-17T01:24:43.702Z,100335.47
2022-12-17T01:27:30.014Z,100343.53
2022-12-17T01:30:16.205Z,100338.31
2022-12-17T01:33:02.111Z,100355.94
2022-12-17T01:35:48.096Z,100354.94
2022-12-17T01:38:36.326Z,100352.63
2022-12-17T01:41:29.433Z,100355.38
2022-12-17T01:44:15.308Z,100353.78
2022-12-17T01:47:06.997Z,100353.53
2022-12-17T01:49:53.074Z,100354.91
2022-12-17T01:52:40.344Z,100366.00
2022-12-17T01:55:26.301Z,100366.69
2022-12-17T01:58:14.090Z,100373.53
2022-12-17T02:01:00.864Z,100376.13
2022-12-17T02:03:46.692Z,100383.66
2022-12-17T02:06:54.176Z,100392.03
2022-12-17T02:09:44.466Z,100388.91
2022-12-17T02:12:36.642Z,100380.22
2022-12-17T02:15:28.940Z,100375.59
2022-12-17T02:18:18.447Z,100380.19
2022-12-17T02:21:06.982Z,100381.84
2022-12-17T02:24:12.266Z,100379.75
2022-12-17T02:27:01.487Z,100377.03
2022-12-17T02:29:50.137Z,100371.31
2022-12-17T02:32:37.258Z,100371.47
2022-12-17T02:35:29.730Z,100359.91
2022-12-17T02:38:15.894Z,100361.28
2022-12-17T02:41:03.909Z,100367.72
2022-12-17T02:43:51.976Z,100365.03
2022-12-17T02:46:38.648Z,100366.16
2022-12-17T02:49:30.104Z,100370.22
2022-12-17T02:52:16.403Z,100373.00
2022-12-17T02:55:02.625Z,100369.19
2022-12-17T02:57:53.629Z,100367.78
2022-12-17T03:00:42.148Z,100368.47
2022-12-17T03:03:28.282Z,100368.88
2022-12-17T03:06:14.672Z,100364.81
2022-12-17T03:09:01.288Z,100376.06
2022-12-17T03:11:47.764Z,100364.53
2022-12-17T03:14:33.698Z,100369.28
2022-12-17T03:17:20.931Z,100371.56
2022-12-17T03:20:06.931Z,100375.06
2022-12-17T03:22:52.927Z,100375.34
2022-12-17T03:25:40.076Z,100369.28
2022-12-17T03:28:29.180Z,100376.75
2022-12-17T03:31:16.688Z,100379.41
2022-12-17T03:34:04.321Z,100373.16
2022-12-17T03:36:50.586Z,100368.69
2022-12-17T03:39:36.536Z,100375.31
2022-12-17T03:42:22.700Z,100381.94
2022-12-17T03:45:09.711Z,100374.41
2022-12-17T03:47:55.665Z,100375.63
2022-12-17T03:50:43.340Z,100375.47
2022-12-17T03:53:28.792Z,100375.75
2022-12-17T03:56:14.841Z,100385.69
2022-12-17T03:59:01.051Z,100390.94
2022-12-17T04:01:47.622Z,100390.31
2022-12-17T04:04:33.655Z,100377.41
2022-12-17T04:07:20.932Z,100371.03
2022-12-17T04:10:18.350Z,100367.97
2022-12-17T04:13:04.436Z,100377.59
2022-12-17T04:15:50.581Z,100391.25
2022-12-17T04:18:37.051Z,100382.38
2022-12-17T04:21:23.726Z,100385.72
2022-12-17T04:24:11.216Z,100403.00
2022-12-17T04:26:57.724Z,100412.69
2022-12-17T04:29:43.888Z,100419.19
2022-12-17T04:32:34.925Z,100427.13
2022-12-17T04:35:21.567Z,100429.31
2022-12-17T04:38:08.183Z,100435.94
2022-12-17T04:40:55.871Z,100440.44
2022-12-17T04:43:41.760Z,100445.56
2022-12-17T04:46:27.943Z,100445.78
2022-12-17T04:49:14.037Z,100453.19
2022-12-17T04:51:59.909Z,100447.72
2022-12-17T04:54:45.975Z,100466.34
2022-12-17T04:57:33.859Z,100479.31
2022-12-17T05:00:19.910Z,100486.66
2022-12-17T05:03:06.150Z,100493.13
2022-12-17T05:05:52.400Z,100489.25
2022-12-17T05:08:41.592Z,100496.78
2022-12-17T05:11:27.580Z,100496.38
2022-12-17T05:14:15.449Z,100500.72
2022-12-17T05:17:01.424Z,100504.56
2022-12-17T05:19:55.472Z,100504.94
2022-12-17T05:22:41.376Z,100510.16
2022-12-17T05:25:27.876Z,100515.63
2022-12-17T05:28:13.855Z,100506.53
2022-12-17T05:31:01.641Z,100504.53
2022-12-17T05:33:47.724Z,100495.25
2022-12-17T05:36:33.549Z,100504.53
2022-12-17T05:39:19.535Z,100491.97
2022-12-17T05:42:05.728Z,100502.31
2022-12-17T05:44:48.163Z,100494.25
2022-12-17T05:47:35.672Z,100502.63
2022-12-17T05:50:21.134Z,100502.06
2022-12-17T05:53:07.681Z,100513.25
2022-12-17T05:55:54.163Z,100508.25
2022-12-17T05:58:40.043Z,100505.00
2022-12-17T06:01:26.233Z,100507.16
2022-12-17T06:04:14.278Z,100507.00
2022-12-17T06:07:00.142Z,100513.00
2022-12-17T06:09:46.141Z,100507.72
2022-12-17T06:12:32.272Z,100499.72
2022-12-17T06:15:18.299Z,100507.03
2022-12-17T06:18:22.898Z,100505.47
2022-12-17T06:21:11.306Z,100511.44
2022-12-17T06:23:57.378Z,100525.38
2022-12-17T06:26:43.338Z,100529.16
2022-12-17T06:29:29.415Z,100541.72
2022-12-17T06:32:15.456Z,100549.44
2022-12-17T06:35:01.646Z,100553.97
2022-12-17T06:37:49.529Z,100560.00
2022-12-17T06:40:50.759Z,100562.09
2022-12-17T06:43:33.621Z,100570.34
2022-12-17T06:46:20.232Z,100575.56
2022-12-17T06:49:06.681Z,100593.34
2022-12-17T06:51:52.626Z,100587.41
2022-12-17T06:54:39.513Z,100592.72
2022-12-17T06:57:25.600Z,100594.31
2022-12-17T07:00:11.773Z,100596.28
2022-12-17T07:02:57.902Z,100602.19
2022-12-17T07:05:43.906Z,100596.28
2022-12-17T07:08:29.507Z,100593.75
2022-12-17T07:11:19.281Z,100595.16
2022-12-17T07:14:05.261Z,100587.25
2022-12-17T07:16:51.374Z,100594.06
2022-12-17T07:19:37.744Z,100591.22
2022-12-17T07:22:23.871Z,100603.03
2022-12-17T07:25:09.792Z,100594.84
2022-12-17T07:28:02.763Z,100602.97
2022-12-17T07:30:54.135Z,100605.84
2022-12-17T07:33:41.817Z,100620.81
2022-12-17T07:36:28.046Z,100619.13
2022-12-17T07:39:14.018Z,100622.25
2022-12-17T07:41:59.821Z,100630.31
2022-12-17T07:44:47.578Z,100634.31
2022-12-17T07:47:33.665Z,100633.19
2022-12-17T07:50:19.441Z,100640.09
2022-12-17T07:53:05.613Z,100639.38
2022-12-17T07:55:51.455Z,100636.69
2022-12-17T07:58:37.439Z,100637.66
2022-12-17T08:01:25.436Z,100643.25
2022-12-17T08:04:11.335Z,100647.88
2022-12-17T08:07:02.846Z,100648.34
2022-12-17T08:09:51.767Z,100648.56
2022-12-17T08:12:38.155Z,100643.88
2022-12-17T08:15:25.045Z,100651.66
2022-12-17T08:18:22.936Z,100652.88
2022-12-17T08:21:12.397Z,100661.94
2022-12-17T08:23:58.303Z,100672.91
2022-12-17T08:26:47.905Z,100672.56
2022-12-17T08:29:34.274Z,100677.72
2022-12-17T08:32:20.221Z,100672.88
2022-12-17T08:35:07.828Z,100676.75
2022-12-17T08:37:55.060Z,100684.22
2022-12-17T08:40:41.134Z,100684.34
2022-12-17T08:43:27.130Z,100691.59
2022-12-17T08:46:13.433Z,100692.81
2022-12-17T08:48:59.387Z,100695.91
2022-12-17T08:51:46.814Z,100704.63
2022-12-17T08:54:32.837Z,100701.44
2022-12-17T08:57:30.829Z,100696.38
2022-12-17T09:00:18.212Z,100704.44
2022-12-17T09:03:04.457Z,100717.22
2022-12-17T09:05:50.881Z,100713.63
2022-12-17T09:08:38.774Z,100717.34
2022-12-17T09:11:24.268Z,100717.88
2022-12-17T09:14:10.243Z,100726.34
2022-12-17T09:16:56.453Z,100716.38
2022-12-17T09:19:42.802Z,100723.03
2022-12-17T09:22:28.736Z,100737.16
2022-12-17T09:25:16.246Z,100742.72
2022-12-17T09:28:02.288Z,100755.25
2022-12-17T09:30:48.456Z,100748.94
2022-12-17T09:33:35.290Z,100748.47
2022-12-17T09:36:22.101Z,100744.75
2022-12-17T09:39:08.436Z,100745.78
2022-12-17T09:41:59.421Z,100755.97
2022-12-17T09:44:49.040Z,100754.94
2022-12-17T09:47:42.151Z,100748.50
2022-12-17T09:50:33.022Z,100748.66
2022-12-17T09:53:21.647Z,100751.94
2022-12-17T09:56:10.058Z,100747.50
2022-12-17T09:58:59.133Z,100748.91
2022-12-17T10:01:47.541Z,100746.44
2022-12-17T10:04:35.136Z,100750.03
2022-12-17T10:07:22.035Z,100758.19
2022-12-17T10:10:10.546Z,100746.41
2022-12-17T10:12:57.215Z,100754.81
2022-12-17T10:15:44.927Z,100758.22
2022-12-17T10:18:31.492Z,100767.66
2022-12-17T10:21:19.683Z,100768.19
2022-12-17T10:24:05.760Z,100772.91
2022-12-17T10:26:53.619Z,100781.72
2022-12-17T10:29:47.385Z,100785.97
2022-12-17T10:32:40.971Z,100797.72
2022-12-17T10:35:31.875Z,100788.22
2022-12-17T10:38:19.035Z,100796.91
2022-12-17T10:41:05.128Z,100801.19
2022-12-17T10:43:53.298Z,100795.94
2022-12-17T10:46:43.904Z,100791.41
2022-12-17T10:49:33.499Z,100801.53
2022-12-17T10:52:21.995Z,100797.84
2022-12-17T10:55:16.132Z,100793.25
2022-12-17T10:58:02.207Z,100798.81
2022-12-17T11:00:50.747Z,100802.09
2022-12-17T11:03:49.147Z,100809.28
2022-12-17T11:06:42.499Z,100809.88
2022-12-17T11:09:37.538Z,100811.94
2022-12-17T11:12:30.135Z,100802.31
2022-12-17T11:15:20.099Z,100799.53
2022-12-17T11:18:11.342Z,100801.00
2022-12-17T11:21:06.585Z,100807.72
2022-12-17T11:23:55.332Z,100806.72
2022-12-17T11:26:44.257Z,100802.19
2022-12-17T11:29:31.852Z,100799.78
2022-12-17T11:33:00.655Z,100800.19
2022-12-17T11:35:49.149Z,100811.56
2022-12-17T11:38:44.673Z,100829.38
2022-12-17T11:41:39.049Z,100826.84
2022-12-17T11:44:34.469Z,100827.59
2022-12-17T11:47:29.090Z,100821.97
2022-12-17T11:50:19.539Z,100813.34
2022-12-17T11:53:11.934Z,100830.00
2022-12-17T11:56:03.459Z,100836.69
2022-12-17T11:58:53.810Z,100851.69
2022-12-17T12:01:48.674Z,100864.09
2022-12-17T12:04:46.937Z,100841.47
2022-12-17T12:07:39.804Z,100847.03
2022-12-17T12:10:29.864Z,100861.34
2022-12-17T12:13:21.804Z,100846.91
2022-12-17T12:16:16.997Z,100844.94
2022-12-17T12:19:09.529Z,100847.56
2022-12-17T12:21:58.086Z,100854.09
2022-12-17T12:25:05.505Z,100857.59
2022-12-17T12:27:57.875Z,100867.28
2022-12-17T12:30:48.717Z,100875.53
2022-12-17T12:33:42.846Z,100885.66
2022-12-17T12:36:30.058Z,100885.38
2022-12-17T12:39:16.520Z,100893.59
2022-12-17T12:42:09.225Z,100898.03
2022-12-17T12:45:08.778Z,100891.97
2022-12-17T12:48:02.700Z,100888.34
2022-12-17T12:50:55.370Z,100892.41
2022-12-17T12:53:43.784Z,100898.56
2022-12-17T12:56:45.155Z,100894.41
2022-12-17T12:59:49.558Z,100897.22
2022-12-17T13:02:46.225Z,100892.91
2022-12-17T13:05:35.690Z,100901.16
2022-12-17T13:08:21.881Z,100902.34
2022-12-17T13:10:52.727Z,100899.84
2022-12-17T13:13:35.810Z,100890.81
2022-12-17T13:16:09.267Z,100907.03
2022-12-17T13:18:41.085Z,100907.38
2022-12-17T13:21:26.788Z,100905.78
2022-12-17T13:23:56.980Z,100918.56
2022-12-17T13:26:32.435Z,100919.00
2022-12-17T13:29:04.226Z,100916.91
2022-12-17T13:31:45.340Z,100917.34
2022-12-17T13:34:19.419Z,100917.38
2022-12-17T13:36:52.485Z,100919.50
2022-12-17T13:39:32.309Z,100913.84
2022-12-17T13:42:02.102Z,100928.69
2022-12-17T13:44:35.475Z,100927.47
2022-12-17T13:47:04.270Z,100925.34
2022-12-17T13:49:33.090Z,100930.22
2022-12-17T13:52:07.976Z,100933.50
2022-12-17T13:54:40.848Z,100943.09
2022-12-17T13:57:10.593Z,100943.66
2022-12-17T13:59:39.601Z,100942.34
2022-12-17T14:02:23.014Z,100934.47
2022-12-17T14:04:54.202Z,100940.28
2022-12-17T14:07:24.221Z,100930.91
2022-12-17T14:09:54.522Z,100938.44
2022-12-17T14:12:26.281Z,100945.53
2022-12-17T14:14:57.312Z,100943.44
2022-12-17T14:17:27.345Z,100951.97
2022-12-17T14:20:00.314Z,100956.78
2022-12-17T14:22:34.386Z,100965.13
2022-12-17T14:25:06.070Z,100979.25
2022-12-17T14:27:37.016Z,100984.94
2022-12-17T14:30:22.483Z,100985.88
2022-12-17T14:32:51.199Z,100989.00
2022-12-17T14:35:28.291Z,100988.69
2022-12-17T14:37:57.377Z,100994.38
2022-12-17T14:40:27.913Z,100999.06
2022-12-17T14:43:00.659Z,100995.56
2022-12-17T14:45:30.058Z,100995.72
2022-12-17T14:48:00.276Z,101000.50
2022-12-17T14:50:33.800Z,101006.00
2022-12-17T14:53:03.851Z,101012.00
2022-12-17T14:55:36.881Z,101017.31
2022-12-17T14:58:15.944Z,101014.78
2022-12-17T15:00:47.568Z,101013.44
2022-12-17T15:03:22.592Z,101017.13
2022-12-17T15:05:54.416Z,101024.63
2022-12-17T15:08:23.403Z,101023.75
2022-12-17T15:10:53.081Z,101034.81
2022-12-17T15:13:22.143Z,101036.09
2022-12-17T15:15:50.800Z,101045.44
2022-12-17T15:18:19.546Z,101045.16
2022-12-17T15:20:48.278Z,101048.88
2022-12-17T15:23:18.598Z,101051.78
2022-12-17T15:25:47.971Z,101048.13
2022-12-17T15:28:19.379Z,101052.84
2022-12-17T15:30:48.400Z,101063.56
2022-12-17T15:33:17.167Z,101059.31
2022-12-17T15:35:46.437Z,101057.13
2022-12-17T15:38:15.341Z,101057.44
2022-12-17T15:40:43.825Z,101069.22
2022-12-17T15:43:11.791Z,101058.72
2022-12-17T15:45:43.832Z,101056.72
2022-12-17T15:48:15.099Z,101074.53
2022-12-17T15:50:44.029Z,101076.06
2022-12-17T15:53:13.358Z,101077.31
2022-12-17T15:55:42.058Z,101080.41
2022-12-17T15:58:11.760Z,101078.34
2022-12-17T16:00:40.535Z,101078.53
2022-12-17T16:03:10.772Z,101089.59
2022-12-17T16:05:39.570Z,101097.28
2022-12-17T16:08:08.211Z,101100.00
2022-12-17T16:10:36.510Z,101097.13
2022-12-17T16:13:05.300Z,101101.13
2022-12-17T16:15:34.020Z,101100.94
2022-12-17T16:18:02.774Z,101095.44
2022-12-17T16:20:32.875Z,101091.81
2022-12-17T16:23:01.645Z,101093.28
2022-12-17T16:25:30.020Z,101095.06
2022-12-17T16:27:58.716Z,101098.84
2022-12-17T16:30:27.407Z,101093.81
2022-12-17T16:32:59.164Z,101099.53
2022-12-17T16:35:28.482Z,101110.72
2022-12-17T16:37:58.134Z,101105.22
2022-12-17T16:40:26.778Z,101117.78
2022-12-17T16:42:55.514Z,101122.47
2022-12-17T16:45:24.172Z,101125.75
2022-12-17T16:47:53.036Z,101134.53
2022-12-17T16:50:21.807Z,101145.59
2022-12-17T16:52:50.270Z,101141.63
2022-12-17T16:55:20.334Z,101149.59
2022-12-17T16:57:48.765Z,101146.25
2022-12-17T17:00:17.755Z,101147.28
2022-12-17T17:02:52.816Z,101148.88
2022-12-17T17:05:22.181Z,101152.81
2022-12-17T17:07:50.634Z,101151.69
2022-12-17T17:10:20.711Z,101161.63
2022-12-17T17:12:49.102Z,101166.53
2022-12-17T17:15:17.989Z,101174.88
2022-12-17T17:17:54.044Z,101180.44
2022-12-17T17:20:25.011Z,101183.00
2022-12-17T17:22:53.330Z,101187.63
2022-12-17T17:25:34.479Z,101198.03
2022-12-17T17:28:13.051Z,101201.00
2022-12-17T17:30:42.212Z,101198.78
2022-12-17T17:33:11.245Z,101193.34
2022-12-17T17:35:40.215Z,101194.66
2022-12-17T17:38:08.941Z,101190.16
2022-12-17T17:40:38.801Z,101198.59
2022-12-17T17:43:07.429Z,101196.34
2022-12-17T17:45:36.061Z,101199.34
2022-12-17T17:48:04.910Z,101193.19
2022-12-17T17:50:33.635Z,101208.66
2022-12-17T17:53:02.425Z,101197.22
2022-12-17T17:55:30.800Z,101198.13
2022-12-17T17:58:00.881Z,101202.41
2022-12-17T18:00:29.412Z,101209.56
2022-12-17T18:03:00.506Z,101218.88
2022-12-17T18:05:29.495Z,101217.69
2022-12-17T18:07:58.319Z,101229.22
2022-12-17T18:10:26.627Z,101225.91
2022-12-17T18:13:12.945Z,101224.53
2022-12-17T18:15:43.135Z,101222.84
2022-12-17T18:18:14.658Z,101232.34
2022-12-17T18:20:43.817Z,101243.28
2022-12-17T18:23:12.415Z,101249.53
2022-12-17T18:25:41.111Z,101248.31
2022-12-17T18:28:09.857Z,101256.34
2022-12-17T18:30:39.684Z,101254.31
2022-12-17T18:33:09.788Z,101266.22
2022-12-17T18:35:38.539Z,101261.91
2022-12-17T18:38:07.207Z,101270.31
2022-12-17T18:40:36.935Z,101266.78
2022-12-17T18:43:22.932Z,101270.97
2022-12-17T18:45:51.898Z,101276.00
2022-12-17T18:48:23.989Z,101277.19
2022-12-17T18:50:52.546Z,101285.66
2022-12-17T18:53:21.186Z,101285.84
2022-12-17T18:55:49.603Z,101281.38
2022-12-17T18:58:18.303Z,101284.16
2022-12-17T19:00:47.184Z,101300.91
2022-12-17T19:03:15.944Z,101298.50
2022-12-17T19:05:50.122Z,101300.00
2022-12-17T19:08:21.906Z,101295.34
2022-12-17T19:10:50.381Z,101291.34
2022-12-17T19:13:19.423Z,101292.56
2022-12-17T19:15:48.129Z,101298.22
2022-12-17T19:18:16.752Z,101298.53
2022-12-17T19:20:46.859Z,101304.66
2022-12-17T19:23:15.651Z,101312.84
2022-12-17T19:25:44.348Z,101309.91
2022-12-17T19:28:13.048Z,101307.03
2022-12-17T19:30:41.757Z,101313.34
2022-12-17T19:33:10.411Z,101319.66
2022-12-17T19:35:39.387Z,101325.78
2022-12-17T19:38:09.487Z,101328.78
2022-12-17T19:40:37.897Z,101315.28
2022-12-17T19:43:06.701Z,101317.81
2022-12-17T19:45:35.462Z,101319.44
2022-12-17T19:48:04.078Z,101321.84
2022-12-17T19:50:32.758Z,101324.50
2022-12-17T19:53:01.550Z,101331.66
2022-12-17T19:55:31.195Z,101332.94
2022-12-17T19:57:59.808Z,101336.66
2022-12-17T20:00:28.460Z,101346.25
2022-12-17T20:02:58.182Z,101356.06
2022-12-17T20:05:26.932Z,101354.38
2022-12-17T20:07:55.246Z,101352.72
2022-12-17T20:10:23.924Z,101350.94
2022-12-17T20:12:54.077Z,101352.25
2022-12-17T20:15:22.633Z,101354.63
2022-12-17T20:17:51.372Z,101358.63
2022-12-17T20:20:19.954Z,101363.53
2022-12-17T20:22:48.703Z,101352.75
2022-12-17T20:25:17.491Z,101357.50
2022-12-17T20:27:46.119Z,101358.59
2022-12-17T20:30:16.360Z,101366.47
2022-12-17T20:32:45.000Z,101375.06
2022-12-17T20:35:13.806Z,101368.91
2022-12-17T20:37:42.024Z,101379.91
2022-12-17T20:40:11.870Z,101382.16
2022-12-17T20:42:40.611Z,101390.13
2022-12-17T20:45:10.503Z,101399.78
2022-12-17T20:47:40.503Z,101395.63
2022-12-17T20:50:09.497Z,101396.47
2022-12-17T20:52:37.875Z,101397.38
2022-12-17T20:55:07.569Z,101403.59
2022-12-17T20:57:36.231Z,101406.59
2022-12-17T21:00:06.253Z,101412.84
2022-12-17T21:02:35.028Z,101409.09
2022-12-17T21:05:06.023Z,101418.75
2022-12-17T21:07:34.487Z,101436.94
2022-12-17T21:10:03.190Z,101439.38
2022-12-17T21:12:51.838Z,101435.50
2022-12-17T21:15:20.492Z,101437.81
2022-12-17T21:17:49.578Z,101430.97
2022-12-17T21:20:20.229Z,101430.44
2022-12-17T21:22:49.720Z,101442.59
2022-12-17T21:25:18.623Z,101447.44
2022-12-17T21:27:47.213Z,101446.34
2022-12-17T21:30:17.508Z,101445.81
2022-12-17T21:32:46.238Z,101445.84
2022-12-17T21:35:15.990Z,101444.78
2022-12-17T21:37:46.955Z,101449.75
2022-12-17T21:40:16.526Z,101454.19
2022-12-17T21:43:03.187Z,101470.50
2022-12-17T21:45:36.699Z,101471.69
2022-12-17T21:48:15.015Z,101470.94
2022-12-17T21:50:45.083Z,101460.84
2022-12-17T21:53:15.305Z,101464.09
2022-12-17T21:55:43.944Z,101459.47
2022-12-17T21:58:13.155Z,101460.78
2022-12-17T22:00:41.806Z,101458.44
2022-12-17T22:03:10.641Z,101471.69
2022-12-17T22:05:39.353Z,101470.31
2022-12-17T22:08:08.141Z,101471.09
2022-12-17T22:10:51.475Z,101477.50
2022-12-17T22:13:38.641Z,101472.88
2022-12-17T22:16:08.046Z,101473.13
2022-12-17T22:18:36.864Z,101483.19
2022-12-17T22:21:05.768Z,101487.16
2022-12-17T22:23:34.415Z,101492.31
2022-12-17T22:26:09.700Z,101491.84
2022-12-17T22:28:38.383Z,101491.56
2022-12-17T22:31:24.891Z,101497.38
2022-12-17T22:34:49.308Z,101504.13
2022-12-17T22:39:03.442Z,101515.41
2022-12-17T22:44:22.559Z,101515.16
2022-12-17T22:44:49.375Z,101523.50
2022-12-17T22:45:27.623Z,101525.00
2022-12-17T22:47:56.224Z,101535.59
2022-12-17T22:50:37.275Z,101538.38
2022-12-17T22:53:10.179Z,101539.13
2022-12-17T22:55:39.245Z,101543.19
2022-12-17T22:58:09.876Z,101539.81
2022-12-17T23:00:38.309Z,101543.28
2022-12-17T23:03:07.039Z,101545.53
2022-12-17T23:05:36.015Z,101544.19
2022-12-17T23:08:04.605Z,101542.34
2022-12-17T23:10:32.869Z,101542.13
2022-12-17T23:13:01.564Z,101534.81
2022-12-17T23:15:35.029Z,101537.06
2022-12-17T23:18:07.169Z,101526.34
2022-12-17T23:20:36.090Z,101524.25
2022-12-17T23:23:04.677Z,101531.81
2022-12-17T23:25:32.998Z,101530.72
2022-12-17T23:28:01.635Z,101528.72
2022-12-17T23:30:32.013Z,101537.28
2022-12-17T23:33:00.640Z,101535.03
2022-12-17T23:35:29.315Z,101549.09
2022-12-17T23:37:58.024Z,101544.69
2022-12-17T23:40:26.725Z,101545.41
2022-12-17T23:42:57.458Z,101549.09
2022-12-17T23:45:26.228Z,101554.09
2022-12-17T23:47:59.425Z,101555.88
2022-12-17T23:50:28.124Z,101561.66
2022-12-17T23:52:56.367Z,101574.72
2022-12-17T23:55:25.047Z,101576.03
2022-12-17T23:57:56.656Z,101577.72
